Time;durP1;ratioP1;P1;durP2;ratioP2;P2;SDS_P1;SDS_P2;PMS_P1;PMS_P2;Temp;Humidity;BMP_temperature;BMP_pressure;BME280_temperature;BME280_humidity;BME280_pressure;Samples;Min_cycle;Max_cycle;Signal;HPM_P1;HPM_P2
2023/06/12 00:01:50;;;;;;;4.63;3.47;;;;;;;;;;5071864;28;20203;-56
2023/06/12 00:04:16;;;;;;;6.17;3.50;;;;;;;;;;5069955;28;20276;-55
2023/06/12 00:06:42;;;;;;;4.27;3.43;;;;;;;;;;5070401;28;20426;-56
2023/06/12 00:09:08;;;;;;;5.93;3.43;;;;;;;;;;5071897;28;20227;-58
2023/06/12 00:11:34;;;;;;;5.20;3.70;;;;;;;;;;5072089;28;20202;-55
2023/06/12 00:14:00;;;;;;;4.00;3.30;;;;;;;;;;5071911;28;20669;-57
2023/06/12 00:16:28;;;;;;;4.27;3.10;;;;;;;;;;5071775;28;20195;-57
2023/06/12 00:18:55;;;;;;;5.03;3.23;;;;;;;;;;5071910;28;20192;-57
2023/06/12 00:21:22;;;;;;;5.07;3.67;;;;;;;;;;5071486;28;20222;-57
2023/06/12 00:23:49;;;;;;;4.10;3.70;;;;;;;;;;5071620;28;20545;-56
2023/06/12 00:26:15;;;;;;;4.53;3.40;;;;;;;;;;5071697;28;20195;-57
2023/06/12 00:28:40;;;;;;;5.23;3.50;;;;;;;;;;5071657;28;20235;-57
2023/06/12 00:31:07;;;;;;;4.00;3.40;;;;;;;;;;5071956;28;20564;-57
2023/06/12 00:33:34;;;;;;;4.77;3.50;;;;;;;;;;5071721;28;20616;-57
2023/06/12 00:36:00;;;;;;;6.07;3.47;;;;;;;;;;5071732;28;20209;-57
2023/06/12 00:38:26;;;;;;;5.97;3.80;;;;;;;;;;5071413;28;20195;-57
2023/06/12 00:40:52;;;;;;;4.97;3.47;;;;;;;;;;5071633;28;20580;-57
2023/06/12 00:43:18;;;;;;;9.37;4.00;;;;;;;;;;5071505;28;20281;-57
2023/06/12 00:45:44;;;;;;;5.07;3.67;;;;;;;;;;5071303;28;20257;-57
2023/06/12 00:48:10;;;;;;;4.23;3.83;;;;;;;;;;5071221;28;20199;-57
2023/06/12 00:50:39;;;;;;;4.37;3.70;;;;;;;;;;5071617;28;20219;-56
2023/06/12 00:53:06;;;;;;;7.23;3.30;;;;;;;;;;5071667;28;20599;-57
2023/06/12 00:55:32;;;;;;;5.65;3.75;;;;;;;;;;5069966;28;20396;-57
2023/06/12 00:57:58;;;;;;;3.95;3.58;;;;;;;;;;5070040;28;20981;-57
2023/06/12 01:00:25;;;;;;;5.03;3.70;;;;;;;;;;5071025;28;20624;-57
2023/06/12 01:02:51;;;;;;;4.47;3.50;;;;;;;;;;5071308;28;20203;-57
2023/06/12 01:05:22;;;;;;;4.37;3.93;;;;;;;;;;5071172;28;20227;-57
2023/06/12 01:07:55;;;;;;;3.80;3.40;;;;;;;;;;5071415;28;20214;-57
2023/06/12 01:10:30;;;;;;;3.80;3.30;;;;;;;;;;5071245;28;20654;-57
2023/06/12 01:12:57;;;;;;;4.97;3.53;;;;;;;;;;5069911;28;20198;-57
2023/06/12 01:15:23;;;;;;;11.20;3.50;;;;;;;;;;5070986;28;20195;-57
2023/06/12 01:17:49;;;;;;;4.20;3.53;;;;;;;;;;5071294;28;20210;-57
2023/06/12 01:20:17;;;;;;;3.80;3.30;;;;;;;;;;5071033;28;20199;-57
2023/06/12 01:22:48;;;;;;;4.18;3.70;;;;;;;;;;5069824;28;20854;-56
2023/06/12 01:25:24;;;;;;;4.43;4.03;;;;;;;;;;5070791;28;20242;-57
2023/06/12 01:27:59;;;;;;;4.72;3.80;;;;;;;;;;5069981;28;20412;-57
2023/06/12 01:30:41;;;;;;;4.25;3.70;;;;;;;;;;5069478;28;20427;-57
2023/06/12 01:33:09;;;;;;;4.55;3.58;;;;;;;;;;5069990;28;20399;-57
2023/06/12 01:35:37;;;;;;;4.65;3.97;;;;;;;;;;5074064;28;20541;-57
2023/06/12 01:38:06;;;;;;;4.97;4.03;;;;;;;;;;5073865;28;20403;-57
2023/06/12 01:40:33;;;;;;;4.28;3.88;;;;;;;;;;5073775;28;20438;-57
2023/06/12 01:42:59;;;;;;;4.40;4.00;;;;;;;;;;5073570;28;20419;-57
2023/06/12 01:45:25;;;;;;;4.00;3.60;;;;;;;;;;5073476;28;20399;-56
2023/06/12 01:47:51;;;;;;;5.17;3.93;;;;;;;;;;5074971;28;20199;-57
2023/06/12 01:50:18;;;;;;;3.80;3.50;;;;;;;;;;5075075;28;20234;-57
2023/06/12 01:52:45;;;;;;;4.80;3.80;;;;;;;;;;5073416;28;20431;-56
2023/06/12 01:55:13;;;;;;;6.60;4.00;;;;;;;;;;5073255;28;20494;-57
2023/06/12 01:57:40;;;;;;;4.90;4.07;;;;;;;;;;5073256;28;20392;-57
2023/06/12 02:00:09;;;;;;;5.23;3.83;;;;;;;;;;5073342;28;20398;-57
2023/06/12 02:02:35;;;;;;;4.20;3.50;;;;;;;;;;5074660;28;20203;-57
2023/06/12 02:05:01;;;;;;;4.60;4.07;;;;;;;;;;5074380;28;20223;-57
2023/06/12 02:07:29;;;;;;;3.93;3.40;;;;;;;;;;5074314;28;20188;-57
2023/06/12 02:09:55;;;;;;;4.47;3.70;;;;;;;;;;5074150;28;20247;-57
2023/06/12 02:12:21;;;;;;;4.60;3.73;;;;;;;;;;5074334;28;20237;-57
2023/06/12 02:14:47;;;;;;;5.40;4.00;;;;;;;;;;5074311;28;20209;-60
2023/06/12 02:17:13;;;;;;;4.30;3.87;;;;;;;;;;5074070;28;20199;-56
2023/06/12 02:19:39;;;;;;;4.73;4.07;;;;;;;;;;5074188;28;20195;-56
2023/06/12 02:22:06;;;;;;;4.33;3.87;;;;;;;;;;5074269;28;20202;-56
2023/06/12 02:24:33;;;;;;;4.50;4.10;;;;;;;;;;5073771;28;20239;-57
2023/06/12 02:26:59;;;;;;;4.30;3.90;;;;;;;;;;5074062;28;20248;-57
2023/06/12 02:29:25;;;;;;;4.68;3.90;;;;;;;;;;5072515;28;20519;-56
2023/06/12 02:31:51;;;;;;;5.20;4.20;;;;;;;;;;5072752;28;20856;-57
2023/06/12 02:34:17;;;;;;;4.73;4.03;;;;;;;;;;5074036;28;20202;-56
2023/06/12 02:36:46;;;;;;;4.33;3.93;;;;;;;;;;5073962;28;20619;-56
2023/06/12 02:39:15;;;;;;;9.67;3.73;;;;;;;;;;5073940;28;20194;-57
2023/06/12 02:41:43;;;;;;;5.70;3.93;;;;;;;;;;5073857;28;20206;-56
2023/06/12 02:44:09;;;;;;;4.23;3.83;;;;;;;;;;5073413;28;20202;-56
2023/06/12 02:46:51;;;;;;;6.07;4.37;;;;;;;;;;5073640;28;20200;-57
2023/06/12 02:49:17;;;;;;;4.67;4.27;;;;;;;;;;5073611;28;20228;-56
2023/06/12 02:51:43;;;;;;;5.40;4.10;;;;;;;;;;5073598;28;20199;-57
2023/06/12 02:54:09;;;;;;;5.25;4.10;;;;;;;;;;5072163;28;20430;-56
2023/06/12 02:56:35;;;;;;;5.97;4.20;;;;;;;;;;5073837;28;20227;-56
2023/06/12 02:59:03;;;;;;;4.23;3.83;;;;;;;;;;5073440;28;20201;-57
2023/06/12 03:01:30;;;;;;;5.67;4.23;;;;;;;;;;5073133;28;20695;-56
2023/06/12 03:03:58;;;;;;;4.70;4.30;;;;;;;;;;5071625;28;20400;-57
2023/06/12 03:06:26;;;;;;;4.80;4.30;;;;;;;;;;5071395;28;20407;-56
2023/06/12 03:08:52;;;;;;;4.95;3.80;;;;;;;;;;5071115;28;20931;-56
2023/06/12 03:11:18;;;;;;;7.50;3.97;;;;;;;;;;5073278;28;20282;-56
2023/06/12 03:13:45;;;;;;;4.60;4.07;;;;;;;;;;5073090;28;20227;-56
2023/06/12 03:16:14;;;;;;;5.53;4.17;;;;;;;;;;5073134;28;20198;-57
2023/06/12 03:18:40;;;;;;;4.73;4.20;;;;;;;;;;5072961;28;20259;-56
2023/06/12 03:21:06;;;;;;;4.33;3.97;;;;;;;;;;5073740;28;20201;-56
2023/06/12 03:23:32;;;;;;;6.20;4.23;;;;;;;;;;5072976;28;20655;-57
2023/06/12 03:25:58;;;;;;;4.93;4.37;;;;;;;;;;5072807;28;20289;-57
2023/06/12 03:28:24;;;;;;;5.63;4.17;;;;;;;;;;5072787;28;20260;-57
2023/06/12 03:30:50;;;;;;;4.33;3.93;;;;;;;;;;5072930;28;20199;-57
2023/06/12 03:33:17;;;;;;;4.47;4.07;;;;;;;;;;5072697;28;20668;-55
2023/06/12 03:35:43;;;;;;;5.03;4.53;;;;;;;;;;5072783;28;20208;-55
2023/06/12 03:38:09;;;;;;;5.73;4.50;;;;;;;;;;5072767;28;20284;-56
2023/06/12 03:40:35;;;;;;;5.03;4.53;;;;;;;;;;5072644;28;20251;-56
2023/06/12 03:43:01;;;;;;;4.90;4.40;;;;;;;;;;5072671;28;20403;-57
2023/06/12 03:45:27;;;;;;;5.57;4.40;;;;;;;;;;5072326;28;20623;-57
2023/06/12 03:47:53;;;;;;;4.90;4.50;;;;;;;;;;5072583;28;20192;-57
2023/06/12 03:50:22;;;;;;;4.70;4.30;;;;;;;;;;5072496;28;20232;-57
2023/06/12 03:52:48;;;;;;;4.67;4.23;;;;;;;;;;5072625;28;20577;-57
2023/06/12 03:55:14;;;;;;;6.33;4.50;;;;;;;;;;5072242;28;20797;-57
2023/06/12 03:57:40;;;;;;;5.53;5.00;;;;;;;;;;5071579;28;20228;-57
2023/06/12 04:00:08;;;;;;;5.77;4.80;;;;;;;;;;5072437;28;20188;-57
2023/06/12 04:02:34;;;;;;;5.37;4.87;;;;;;;;;;5072202;28;20255;-57
2023/06/12 04:05:00;;;;;;;4.73;4.33;;;;;;;;;;5072075;28;20224;-57
2023/06/12 04:07:28;;;;;;;5.23;4.73;;;;;;;;;;5071965;28;20245;-57
2023/06/12 04:09:54;;;;;;;5.67;4.73;;;;;;;;;;5071849;28;20706;-57
2023/06/12 04:12:20;;;;;;;5.27;4.77;;;;;;;;;;5072042;28;20196;-55
2023/06/12 04:14:46;;;;;;;5.27;4.60;;;;;;;;;;5071913;28;20204;-55
2023/06/12 04:17:12;;;;;;;5.33;4.87;;;;;;;;;;5071745;28;20191;-55
2023/06/12 04:19:40;;;;;;;5.90;5.27;;;;;;;;;;5071792;28;20651;-55
2023/06/12 04:22:06;;;;;;;5.83;5.23;;;;;;;;;;5071881;28;20201;-56
2023/06/12 04:24:34;;;;;;;5.77;5.17;;;;;;;;;;5071436;28;20250;-56
2023/06/12 04:27:08;;;;;;;5.47;4.97;;;;;;;;;;5071714;28;20600;-55
2023/06/12 04:29:37;;;;;;;6.45;5.38;;;;;;;;;;5070439;28;20456;-55
2023/06/12 04:32:05;;;;;;;5.80;5.00;;;;;;;;;;5070489;28;20414;-55
2023/06/12 04:34:31;;;;;;;6.33;5.40;;;;;;;;;;5071446;28;20220;-55
2023/06/12 04:36:57;;;;;;;6.90;5.03;;;;;;;;;;5071415;28;20623;-56
2023/06/12 04:39:23;;;;;;;6.03;5.33;;;;;;;;;;5071560;28;20203;-56
2023/06/12 04:41:51;;;;;;;7.63;6.03;;;;;;;;;;5071590;28;20696;-56
2023/06/12 04:44:17;;;;;;;8.17;5.90;;;;;;;;;;5071271;28;20293;-55
2023/06/12 04:46:43;;;;;;;7.07;6.37;;;;;;;;;;5071394;28;20285;-56
2023/06/12 04:49:09;;;;;;;8.57;6.40;;;;;;;;;;5071281;28;20699;-55
2023/06/12 04:51:35;;;;;;;7.00;6.30;;;;;;;;;;5071435;28;20202;-56
2023/06/12 04:54:01;;;;;;;6.83;6.13;;;;;;;;;;5071269;28;20194;-55
2023/06/12 04:56:27;;;;;;;6.50;5.90;;;;;;;;;;5071088;28;20206;-56
2023/06/12 04:58:55;;;;;;;8.07;6.20;;;;;;;;;;5071267;28;20642;-56
2023/06/12 05:01:24;;;;;;;11.50;6.23;;;;;;;;;;5071310;28;20563;-56
2023/06/12 05:03:50;;;;;;;6.33;5.53;;;;;;;;;;5071303;28;20206;-55
2023/06/12 05:06:16;;;;;;;7.97;6.43;;;;;;;;;;5071102;28;20200;-55
2023/06/12 05:08:42;;;;;;;5.83;5.23;;;;;;;;;;5070911;28;20252;-55
2023/06/12 05:11:08;;;;;;;6.57;5.87;;;;;;;;;;5071009;28;20587;-55
2023/06/12 05:13:35;;;;;;;7.57;6.53;;;;;;;;;;5071052;28;20241;-55
2023/06/12 05:16:02;;;;;;;8.07;6.37;;;;;;;;;;5070869;28;20225;-56
2023/06/12 05:18:28;;;;;;;9.27;7.20;;;;;;;;;;5070108;28;20613;-56
2023/06/12 05:20:54;;;;;;;8.03;5.87;;;;;;;;;;5070772;28;20209;-56
2023/06/12 05:23:20;;;;;;;6.57;5.90;;;;;;;;;;5071024;28;20202;-56
2023/06/12 05:25:46;;;;;;;7.40;6.23;;;;;;;;;;5070620;28;20262;-56
2023/06/12 05:28:13;;;;;;;9.27;6.87;;;;;;;;;;5070871;28;20238;-56
2023/06/12 05:30:39;;;;;;;6.43;5.47;;;;;;;;;;5070705;28;20226;-56
2023/06/12 05:33:06;;;;;;;8.33;6.20;;;;;;;;;;5070866;28;20275;-56
2023/06/12 05:35:34;;;;;;;6.80;6.20;;;;;;;;;;5070893;28;20574;-56
2023/06/12 05:38:00;;;;;;;7.70;5.93;;;;;;;;;;5070891;28;20276;-56
2023/06/12 05:40:26;;;;;;;9.13;6.07;;;;;;;;;;5070555;28;20310;-56
2023/06/12 05:42:52;;;;;;;6.80;6.07;;;;;;;;;;5071090;28;20209;-57
2023/06/12 05:45:18;;;;;;;6.87;6.23;;;;;;;;;;5070688;28;20191;-56
2023/06/12 05:47:44;;;;;;;7.87;6.00;;;;;;;;;;5070683;28;20293;-56
2023/06/12 05:50:12;;;;;;;7.50;6.70;;;;;;;;;;5070268;28;20711;-57
2023/06/12 05:52:38;;;;;;;6.33;5.73;;;;;;;;;;5070780;28;20215;-57
2023/06/12 05:55:04;;;;;;;7.93;6.50;;;;;;;;;;5070788;28;20690;-56
2023/06/12 05:57:30;;;;;;;6.50;5.90;;;;;;;;;;5070471;28;20196;-56
2023/06/12 05:59:56;;;;;;;7.88;6.28;;;;;;;;;;5069301;28;20407;-56
2023/06/12 06:02:22;;;;;;;6.77;6.10;;;;;;;;;;5070723;28;20203;-56
2023/06/12 06:04:52;;;;;;;6.07;5.47;;;;;;;;;;5070651;28;20219;-56
2023/06/12 06:07:20;;;;;;;6.17;5.47;;;;;;;;;;5070654;28;20195;-56
2023/06/12 06:09:46;;;;;;;6.30;5.67;;;;;;;;;;5070335;28;20223;-56
2023/06/12 06:12:11;;;;;;;6.63;5.93;;;;;;;;;;5070505;28;20248;-56
2023/06/12 06:14:37;;;;;;;6.13;5.47;;;;;;;;;;5070518;28;20196;-56
2023/06/12 06:17:04;;;;;;;6.47;5.87;;;;;;;;;;5070529;28;20294;-56
2023/06/12 06:19:30;;;;;;;7.20;5.80;;;;;;;;;;5070802;28;20202;-56
2023/06/12 06:21:56;;;;;;;6.53;5.90;;;;;;;;;;5074115;28;20195;-57
2023/06/12 06:24:23;;;;;;;6.60;5.93;;;;;;;;;;5074057;28;20241;-57
2023/06/12 06:26:49;;;;;;;6.97;6.13;;;;;;;;;;5074262;28;20203;-57
2023/06/12 06:29:15;;;;;;;8.67;6.83;;;;;;;;;;5073706;28;20589;-57
2023/06/12 06:31:41;;;;;;;8.03;6.80;;;;;;;;;;5073976;28;20199;-57
2023/06/12 06:34:07;;;;;;;8.77;6.88;;;;;;;;;;5072725;28;20457;-57
2023/06/12 06:36:33;;;;;;;7.67;5.57;;;;;;;;;;5073785;28;20207;-57
2023/06/12 06:38:59;;;;;;;7.63;6.68;;;;;;;;;;5072600;28;20391;-57
2023/06/12 06:41:26;;;;;;;7.60;5.90;;;;;;;;;;5073705;28;20254;-57
2023/06/12 06:43:52;;;;;;;6.50;5.73;;;;;;;;;;5073711;28;20684;-57
2023/06/12 06:46:18;;;;;;;7.60;6.43;;;;;;;;;;5073741;28;20203;-57
2023/06/12 06:48:44;;;;;;;7.43;6.20;;;;;;;;;;5073590;28;20203;-57
2023/06/12 06:51:10;;;;;;;6.57;5.90;;;;;;;;;;5073498;28;20199;-57
2023/06/12 06:53:36;;;;;;;7.87;6.37;;;;;;;;;;5073636;28;20204;-57
2023/06/12 06:56:02;;;;;;;9.17;5.90;;;;;;;;;;5073806;28;20261;-57
2023/06/12 06:58:30;;;;;;;6.90;6.23;;;;;;;;;;5073282;28;20204;-57
2023/06/12 07:00:56;;;;;;;6.77;6.07;;;;;;;;;;5073433;28;20566;-57
2023/06/12 07:03:22;;;;;;;7.30;6.32;;;;;;;;;;5072123;28;20415;-57
2023/06/12 07:05:48;;;;;;;8.18;6.35;;;;;;;;;;5072199;28;20417;-57
2023/06/12 07:08:14;;;;;;;7.23;5.63;;;;;;;;;;5073102;28;20896;-57
2023/06/12 07:10:40;;;;;;;7.33;5.60;;;;;;;;;;5073103;28;20786;-57
2023/06/12 07:13:06;;;;;;;7.37;5.13;;;;;;;;;;5073398;28;20201;-57
2023/06/12 07:15:33;;;;;;;7.30;5.40;;;;;;;;;;5073029;28;20197;-57
2023/06/12 07:17:59;;;;;;;7.37;5.73;;;;;;;;;;5073063;28;20207;-57
2023/06/12 07:20:25;;;;;;;8.53;5.73;;;;;;;;;;5072945;28;20209;-57
2023/06/12 07:22:51;;;;;;;9.67;5.33;;;;;;;;;;5073237;28;20528;-58
2023/06/12 07:25:17;;;;;;;7.90;6.03;;;;;;;;;;5072753;28;20290;-57
2023/06/12 07:27:43;;;;;;;7.40;5.10;;;;;;;;;;5072925;28;20203;-57
2023/06/12 07:30:10;;;;;;;6.47;5.37;;;;;;;;;;5072455;28;20308;-57
2023/06/12 07:32:37;;;;;;;7.50;5.90;;;;;;;;;;5071680;28;20280;-57
2023/06/12 07:35:04;;;;;;;6.43;5.10;;;;;;;;;;5072881;28;20205;-57
2023/06/12 07:37:34;;;;;;;6.10;5.37;;;;;;;;;;5072622;28;20222;-57
2023/06/12 07:40:00;;;;;;;5.93;5.10;;;;;;;;;;5072752;28;20200;-57
2023/06/12 07:42:26;;;;;;;7.33;5.00;;;;;;;;;;5072716;28;20267;-57
2023/06/12 07:44:52;;;;;;;8.33;4.97;;;;;;;;;;5072623;28;20209;-57
2023/06/12 07:47:18;;;;;;;5.40;5.00;;;;;;;;;;5072473;28;20230;-57
2023/06/12 07:49:46;;;;;;;6.13;5.00;;;;;;;;;;5072334;28;20227;-57
2023/06/12 07:52:12;;;;;;;6.50;5.20;;;;;;;;;;5072473;28;20643;-57
2023/06/12 07:54:37;;;;;;;6.38;5.35;;;;;;;;;;5071206;28;20894;-57
2023/06/12 07:57:06;;;;;;;5.60;5.03;;;;;;;;;;5072430;28;20211;-57
2023/06/12 07:59:32;;;;;;;9.17;5.03;;;;;;;;;;5072059;28;20718;-56
2023/06/12 08:01:58;;;;;;;8.03;5.73;;;;;;;;;;5072127;28;20274;-58
2023/06/12 08:04:25;;;;;;;8.77;5.17;;;;;;;;;;5071975;28;20244;-57
2023/06/12 08:06:54;;;;;;;7.13;4.97;;;;;;;;;;5072267;28;20204;-57
2023/06/12 08:09:20;;;;;;;5.53;5.03;;;;;;;;;;5072080;28;20223;-56
2023/06/12 08:11:46;;;;;;;6.40;5.10;;;;;;;;;;5071827;28;20268;-58
2023/06/12 08:14:12;;;;;;;6.87;5.70;;;;;;;;;;5071713;28;20405;-57
2023/06/12 08:16:40;;;;;;;6.33;5.60;;;;;;;;;;5071845;28;20680;-56
2023/06/12 08:19:06;;;;;;;8.50;5.40;;;;;;;;;;5071963;28;20670;-58
2023/06/12 08:21:32;;;;;;;7.83;5.70;;;;;;;;;;5071567;28;20195;-56
2023/06/12 08:23:59;;;;;;;6.07;5.47;;;;;;;;;;5071498;28;20322;-57
2023/06/12 08:26:25;;;;;;;8.03;5.40;;;;;;;;;;5071624;28;20277;-57
2023/06/12 08:28:51;;;;;;;5.93;5.30;;;;;;;;;;5071778;28;20678;-57
2023/06/12 08:31:18;;;;;;;5.60;4.80;;;;;;;;;;5071579;28;20195;-57
2023/06/12 08:33:44;;;;;;;5.37;4.77;;;;;;;;;;5071632;28;20207;-57
2023/06/12 08:36:12;;;;;;;8.90;4.60;;;;;;;;;;5071596;28;20195;-57
2023/06/12 08:38:38;;;;;;;9.20;5.13;;;;;;;;;;5071686;28;20230;-57
2023/06/12 08:41:05;;;;;;;5.77;5.07;;;;;;;;;;5071728;28;20199;-57
2023/06/12 08:43:33;;;;;;;8.20;4.60;;;;;;;;;;5070927;28;20208;-57
2023/06/12 08:46:02;;;;;;;4.30;3.90;;;;;;;;;;5071425;28;20467;-57
2023/06/12 08:48:28;;;;;;;9.00;4.60;;;;;;;;;;5071201;28;20207;-57
2023/06/12 08:50:55;;;;;;;5.33;4.13;;;;;;;;;;5071192;28;20285;-57
2023/06/12 08:53:22;;;;;;;14.53;4.87;;;;;;;;;;5071263;28;20206;-57
2023/06/12 08:55:50;;;;;;;12.17;4.47;;;;;;;;;;5071518;28;20255;-57
2023/06/12 08:58:17;;;;;;;5.17;3.90;;;;;;;;;;5071173;28;20199;-57
2023/06/12 09:00:44;;;;;;;9.80;4.30;;;;;;;;;;5071105;28;20649;-57
2023/06/12 09:03:11;;;;;;;5.60;4.73;;;;;;;;;;5071039;28;20237;-57
2023/06/12 09:05:39;;;;;;;10.13;4.77;;;;;;;;;;5071193;28;20226;-56
2023/06/12 09:08:05;;;;;;;5.60;4.20;;;;;;;;;;5071326;28;20290;-57
2023/06/12 09:10:31;;;;;;;8.20;4.47;;;;;;;;;;5070731;28;20227;-57
2023/06/12 09:12:57;;;;;;;6.13;4.70;;;;;;;;;;5071093;28;20190;-57
2023/06/12 09:15:25;;;;;;;5.97;4.47;;;;;;;;;;5070947;28;20288;-57
2023/06/12 09:17:51;;;;;;;6.63;4.50;;;;;;;;;;5071170;28;20278;-57
2023/06/12 09:20:22;;;;;;;5.40;4.28;;;;;;;;;;5069688;28;20403;-57
2023/06/12 09:22:51;;;;;;;7.87;4.07;;;;;;;;;;5071037;28;20207;-57
2023/06/12 09:25:17;;;;;;;5.40;4.40;;;;;;;;;;5070873;28;20247;-57
2023/06/12 09:27:43;;;;;;;5.87;3.90;;;;;;;;;;5070962;28;20279;-57
2023/06/12 09:30:10;;;;;;;7.90;4.10;;;;;;;;;;5070794;28;20336;-57
2023/06/12 09:32:37;;;;;;;6.90;4.33;;;;;;;;;;5070748;28;20660;-57
2023/06/12 09:35:03;;;;;;;6.67;4.00;;;;;;;;;;5070822;28;20206;-57
2023/06/12 09:37:29;;;;;;;5.20;3.90;;;;;;;;;;5070687;28;20208;-57
2023/06/12 09:40:08;;;;;;;5.40;4.43;;;;;;;;;;5070712;28;20263;-57
2023/06/12 09:42:35;;;;;;;4.47;4.07;;;;;;;;;;5070928;28;20231;-57
2023/06/12 09:45:09;;;;;;;6.53;4.00;;;;;;;;;;5070740;28;20204;-58
2023/06/12 09:47:40;;;;;;;6.07;4.37;;;;;;;;;;5070875;28;20636;-57
2023/06/12 09:50:07;;;;;;;5.73;3.90;;;;;;;;;;5070854;28;20696;-56
2023/06/12 09:52:33;;;;;;;5.03;3.73;;;;;;;;;;5070679;28;20275;-57
2023/06/12 09:54:59;;;;;;;6.70;3.53;;;;;;;;;;5072331;28;20194;-57
2023/06/12 09:57:26;;;;;;;6.30;4.13;;;;;;;;;;5074467;28;20199;-56
2023/06/12 09:59:52;;;;;;;6.13;4.00;;;;;;;;;;5074604;28;20702;-56
2023/06/12 10:02:19;;;;;;;4.30;3.90;;;;;;;;;;5074723;28;20616;-57
2023/06/12 10:04:50;;;;;;;5.73;3.77;;;;;;;;;;5074551;28;20235;-57
2023/06/12 10:07:19;;;;;;;5.13;3.80;;;;;;;;;;5074478;28;20302;-58
2023/06/12 10:09:47;;;;;;;5.03;3.93;;;;;;;;;;5074208;28;20219;-57
2023/06/12 10:12:13;;;;;;;6.60;3.90;;;;;;;;;;5074331;28;20214;-57
2023/06/12 10:14:40;;;;;;;6.27;4.30;;;;;;;;;;5073973;28;20202;-56
2023/06/12 10:17:07;;;;;;;4.33;3.70;;;;;;;;;;5074438;28;20205;-58
2023/06/12 10:19:33;;;;;;;6.50;3.50;;;;;;;;;;5074183;28;20210;-57
2023/06/12 10:22:00;;;;;;;6.83;4.20;;;;;;;;;;5074013;28;20207;-56
2023/06/12 10:24:26;;;;;;;5.27;3.77;;;;;;;;;;5073758;28;20238;-57
2023/06/12 10:26:54;;;;;;;6.40;3.73;;;;;;;;;;5074067;28;20244;-57
2023/06/12 10:29:26;;;;;;;4.80;3.60;;;;;;;;;;5073946;28;20700;-57
2023/06/12 10:31:52;;;;;;;6.83;3.70;;;;;;;;;;5074154;28;20198;-57
2023/06/12 10:34:20;;;;;;;3.90;3.50;;;;;;;;;;5073851;28;20722;-57
2023/06/12 10:36:47;;;;;;;6.87;3.80;;;;;;;;;;5073746;28;20603;-57
2023/06/12 10:39:16;;;;;;;7.73;4.07;;;;;;;;;;5073755;28;20202;-57
2023/06/12 10:41:51;;;;;;;4.13;3.43;;;;;;;;;;5073770;28;20203;-57
2023/06/12 10:44:35;;;;;;;4.90;3.33;;;;;;;;;;5073771;28;20191;-58
2023/06/12 10:47:02;;;;;;;4.33;3.70;;;;;;;;;;5073753;28;20188;-57
2023/06/12 10:49:28;;;;;;;8.50;3.60;;;;;;;;;;5073434;28;20613;-57
2023/06/12 10:51:54;;;;;;;3.93;3.53;;;;;;;;;;5073770;28;20207;-57
2023/06/12 10:54:26;;;;;;;4.70;3.50;;;;;;;;;;5073650;28;20195;-57
2023/06/12 10:56:59;;;;;;;5.30;3.40;;;;;;;;;;5073784;28;20200;-56
2023/06/12 10:59:33;;;;;;;3.63;3.33;;;;;;;;;;5073343;28;20193;-56
2023/06/12 11:01:59;;;;;;;3.90;3.50;;;;;;;;;;5073474;28;20199;-56
2023/06/12 11:04:25;;;;;;;5.83;3.50;;;;;;;;;;5073084;28;20295;-56
2023/06/12 11:06:51;;;;;;;4.20;3.63;;;;;;;;;;5073208;28;20199;-56
2023/06/12 11:09:17;;;;;;;9.03;3.50;;;;;;;;;;5073058;28;20233;-56
2023/06/12 11:11:49;;;;;;;6.17;3.50;;;;;;;;;;5073282;28;20206;-56
2023/06/12 11:14:15;;;;;;;6.30;3.37;;;;;;;;;;5073350;28;20230;-57
2023/06/12 11:16:41;;;;;;;4.03;3.00;;;;;;;;;;5073015;28;20199;-56
2023/06/12 11:19:08;;;;;;;6.67;3.57;;;;;;;;;;5072891;28;20202;-56
2023/06/12 11:21:37;;;;;;;8.70;3.77;;;;;;;;;;5073075;28;20218;-56
2023/06/12 11:24:05;;;;;;;3.73;3.30;;;;;;;;;;5072900;28;20716;-57
2023/06/12 11:26:32;;;;;;;4.40;3.40;;;;;;;;;;5072754;28;20211;-57
2023/06/12 11:29:13;;;;;;;7.17;3.30;;;;;;;;;;5072602;28;20196;-57
2023/06/12 11:31:39;;;;;;;4.27;3.20;;;;;;;;;;5072726;28;20241;-57
2023/06/12 11:34:05;;;;;;;6.77;3.17;;;;;;;;;;5072842;28;20199;-58
2023/06/12 11:36:31;;;;;;;9.43;3.60;;;;;;;;;;5072528;28;20191;-57
2023/06/12 11:38:57;;;;;;;4.57;3.53;;;;;;;;;;5072727;28;20208;-57
2023/06/12 11:41:23;;;;;;;6.07;3.50;;;;;;;;;;5072633;28;20599;-57
2023/06/12 11:43:50;;;;;;;7.60;3.40;;;;;;;;;;5072651;28;20205;-57
2023/06/12 11:46:17;;;;;;;3.67;2.90;;;;;;;;;;5072646;28;20232;-58
2023/06/12 11:48:43;;;;;;;5.60;3.10;;;;;;;;;;5072493;28;20241;-57
2023/06/12 11:51:09;;;;;;;6.27;3.03;;;;;;;;;;5072436;28;20311;-57
2023/06/12 11:53:35;;;;;;;4.30;3.00;;;;;;;;;;5072523;28;20199;-57
2023/06/12 11:56:03;;;;;;;3.37;2.90;;;;;;;;;;5072321;28;20203;-57
2023/06/12 11:58:33;;;;;;;7.50;3.17;;;;;;;;;;5071818;28;20573;-59
2023/06/12 12:01:09;;;;;;;3.40;3.10;;;;;;;;;;5072217;28;20197;-57
2023/06/12 12:03:37;;;;;;;5.70;2.70;;;;;;;;;;5072233;28;20259;-58
2023/06/12 12:06:03;;;;;;;3.03;2.73;;;;;;;;;;5072113;28;20746;-58
2023/06/12 12:08:31;;;;;;;3.70;2.97;;;;;;;;;;5072025;28;20253;-58
2023/06/12 12:10:57;;;;;;;5.07;2.83;;;;;;;;;;5071831;28;20927;-58
2023/06/12 12:13:23;;;;;;;6.80;3.03;;;;;;;;;;5072043;28;20636;-58
2023/06/12 12:15:49;;;;;;;5.73;3.10;;;;;;;;;;5072245;28;20296;-58
2023/06/12 12:18:17;;;;;;;6.03;3.23;;;;;;;;;;5071090;28;20288;-58
2023/06/12 12:20:48;;;;;;;4.50;2.70;;;;;;;;;;5071782;28;20216;-58
2023/06/12 12:23:14;;;;;;;5.37;2.90;;;;;;;;;;5071798;28;20205;-58
2023/06/12 12:25:44;;;;;;;5.50;2.97;;;;;;;;;;5071479;28;20630;-59
2023/06/12 12:28:10;;;;;;;4.93;3.00;;;;;;;;;;5071524;28;20628;-55
2023/06/12 12:30:36;;;;;;;4.17;3.17;;;;;;;;;;5071650;28;20240;-55
2023/06/12 12:33:03;;;;;;;4.73;2.90;;;;;;;;;;5071621;28;20694;-55
2023/06/12 12:35:29;;;;;;;4.53;3.20;;;;;;;;;;5071476;28;20672;-53
2023/06/12 12:37:56;;;;;;;3.83;3.10;;;;;;;;;;5071614;28;20199;-64
2023/06/12 12:40:28;;;;;;;3.90;3.10;;;;;;;;;;5071583;28;20256;-53
2023/06/12 12:42:54;;;;;;;3.07;2.77;;;;;;;;;;5066093;28;20559;-52
2023/06/12 12:45:21;;;;;;;6.10;3.10;;;;;;;;;;5065811;28;20191;-51
2023/06/12 12:47:47;;;;;;;3.30;3.00;;;;;;;;;;5071227;28;20626;-50
2023/06/12 12:50:14;;;;;;;3.80;2.97;;;;;;;;;;5071058;28;20233;-51
2023/06/12 12:52:40;;;;;;;3.07;2.77;;;;;;;;;;5070893;28;20191;-51
2023/06/12 12:55:08;;;;;;;4.87;2.90;;;;;;;;;;5071384;28;20676;-52
2023/06/12 12:57:36;;;;;;;4.77;3.00;;;;;;;;;;5070937;28;20193;-50
2023/06/12 13:00:08;;;;;;;4.03;2.60;;;;;;;;;;5070854;28;20538;-51
2023/06/12 13:02:34;;;;;;;3.23;2.60;;;;;;;;;;5070969;28;20589;-50
2023/06/12 13:05:00;;;;;;;7.27;3.23;;;;;;;;;;5070579;28;20638;-51
2023/06/12 13:07:27;;;;;;;5.47;2.80;;;;;;;;;;5070823;28;20643;-50
2023/06/12 13:09:53;;;;;;;7.87;2.80;;;;;;;;;;5070783;28;20262;-49
2023/06/12 13:12:21;;;;;;;4.07;2.93;;;;;;;;;;5071119;28;20218;-49
2023/06/12 13:14:47;;;;;;;3.60;2.90;;;;;;;;;;5071025;28;20294;-49
2023/06/12 13:17:13;;;;;;;4.43;2.90;;;;;;;;;;5070631;28;20210;-49
2023/06/12 13:19:39;;;;;;;4.27;2.73;;;;;;;;;;5070853;28;20206;-49
2023/06/12 13:22:06;;;;;;;3.70;2.70;;;;;;;;;;5071091;28;20190;-49
2023/06/12 13:24:32;;;;;;;8.00;3.10;;;;;;;;;;5070606;28;20297;-49
2023/06/12 13:26:57;;;;;;;3.17;2.90;;;;;;;;;;5070949;28;20708;-48
2023/06/12 13:29:25;;;;;;;4.83;2.77;;;;;;;;;;5072725;28;20229;-48
2023/06/12 13:31:51;;;;;;;3.63;3.20;;;;;;;;;;5073236;28;20208;-48
2023/06/12 13:34:17;;;;;;;5.30;3.13;;;;;;;;;;5073318;28;20571;-49
2023/06/12 13:36:44;;;;;;;3.13;2.87;;;;;;;;;;5075016;28;20200;-48
2023/06/12 13:39:11;;;;;;;4.93;2.80;;;;;;;;;;5075081;28;20565;-49
2023/06/12 13:41:37;;;;;;;6.80;3.07;;;;;;;;;;5075082;28;20618;-50
2023/06/12 13:44:04;;;;;;;3.37;3.00;;;;;;;;;;5075094;28;20270;-49
2023/06/12 13:46:31;;;;;;;4.43;2.87;;;;;;;;;;5074756;28;20263;-49
2023/06/12 13:48:58;;;;;;;3.10;2.73;;;;;;;;;;5074870;28;20671;-49
2023/06/12 13:51:24;;;;;;;6.00;3.13;;;;;;;;;;5074604;28;20230;-50
2023/06/12 13:53:52;;;;;;;3.50;3.20;;;;;;;;;;5057456;28;20201;-50
2023/06/12 13:56:18;;;;;;;4.57;2.93;;;;;;;;;;5054562;28;20234;-50
2023/06/12 13:58:44;;;;;;;4.27;2.90;;;;;;;;;;5054429;28;20261;-51
2023/06/12 14:01:10;;;;;;;3.93;2.80;;;;;;;;;;5054071;28;20612;-50
2023/06/12 14:03:37;;;;;;;5.23;2.90;;;;;;;;;;5052538;28;20223;-53
2023/06/12 14:06:03;;;;;;;3.60;2.70;;;;;;;;;;5052768;28;20233;-50
2023/06/12 14:08:31;;;;;;;3.53;3.17;;;;;;;;;;5054251;28;20192;-50
2023/06/12 14:10:59;;;;;;;3.07;2.77;;;;;;;;;;5054193;28;20233;-50
2023/06/12 14:13:24;;;;;;;5.03;3.07;;;;;;;;;;5054119;28;20227;-51
2023/06/12 14:15:50;;;;;;;4.40;2.83;;;;;;;;;;5054356;28;20605;-50
2023/06/12 14:18:16;;;;;;;2.93;2.70;;;;;;;;;;5054304;28;20213;-50
2023/06/12 14:20:44;;;;;;;4.70;3.03;;;;;;;;;;5054204;28;20284;-52
2023/06/12 14:23:10;;;;;;;4.30;3.00;;;;;;;;;;5054160;28;20202;-51
2023/06/12 14:25:36;;;;;;;5.57;3.40;;;;;;;;;;5054057;28;20576;-51
2023/06/12 14:28:02;;;;;;;3.40;2.90;;;;;;;;;;5054101;28;20230;-51
2023/06/12 14:30:28;;;;;;;3.30;3.00;;;;;;;;;;5053884;28;20484;-51
2023/06/12 14:32:55;;;;;;;6.37;3.17;;;;;;;;;;5054058;28;20213;-51
2023/06/12 14:35:22;;;;;;;4.20;3.13;;;;;;;;;;5054001;28;20218;-52
2023/06/12 14:37:49;;;;;;;3.53;3.23;;;;;;;;;;5054213;28;20222;-50
2023/06/12 14:40:15;;;;;;;3.80;2.97;;;;;;;;;;5052962;28;20599;-50
2023/06/12 14:42:41;;;;;;;5.40;3.00;;;;;;;;;;5053600;28;20243;-49